Time;durP1;ratioP1;P1;durP2;ratioP2;P2;SDS_P1;SDS_P2;PMS_P1;PMS_P2;Temp;Humidity;BMP_temperature;BMP_pressure;BME280_temperature;BME280_humidity;BME280_pressure;Samples;Min_cycle;Max_cycle;Signal;HPM_P1;HPM_P2
2022/03/29 00:02:18;;;;;;;19.83;14.20;;;9.30;74.10;;;;;;5097519;28;20035;-71
2022/03/29 00:04:43;;;;;;;17.48;13.73;;;9.20;74.10;;;;;;5094983;28;20418;-69
2022/03/29 00:07:09;;;;;;;15.52;12.10;;;9.20;74.30;;;;;;5093847;28;20028;-71
2022/03/29 00:09:34;;;;;;;14.95;10.98;;;9.20;74.30;;;;;;5095883;28;20043;-70
2022/03/29 00:12:00;;;;;;;14.15;11.30;;;9.20;74.20;;;;;;5093114;28;20033;-68
2022/03/29 00:14:25;;;;;;;14.98;12.38;;;9.30;74.10;;;;;;5077660;28;20020;-70
2022/03/29 00:16:53;;;;;;;15.15;11.38;;;9.30;73.90;;;;;;5078592;28;20024;-70
2022/03/29 00:19:18;;;;;;;16.13;12.43;;;9.30;73.80;;;;;;5086332;28;20031;-70
2022/03/29 00:21:44;;;;;;;15.13;11.15;;;9.20;73.90;;;;;;5074183;28;20021;-71
2022/03/29 00:24:09;;;;;;;16.52;13.10;;;9.20;74.60;;;;;;5093581;28;20027;-70
2022/03/29 00:26:36;;;;;;;17.38;12.68;;;9.20;74.10;;;;;;5094832;28;20052;-70
2022/03/29 00:29:02;;;;;;;16.85;12.73;;;9.30;74.10;;;;;;5075217;28;20032;-70
2022/03/29 00:31:28;;;;;;;20.33;15.27;;;9.30;74.10;;;;;;5074228;28;20069;-70
2022/03/29 00:33:53;;;;;;;20.63;14.98;;;9.20;74.20;;;;;;5090940;28;20646;-71
2022/03/29 00:36:19;;;;;;;20.38;15.30;;;9.10;74.30;;;;;;5093242;28;20024;-71
2022/03/29 00:38:46;;;;;;;17.27;12.48;;;9.10;74.50;;;;;;5078827;28;20031;-70
2022/03/29 00:41:12;;;;;;;20.88;15.65;;;9.10;74.60;;;;;;5075940;28;20065;-71
2022/03/29 00:43:37;;;;;;;19.00;13.82;;;9.00;74.80;;;;;;5092501;28;20105;-70
2022/03/29 00:46:03;;;;;;;16.92;12.23;;;9.00;75.20;;;;;;5091556;28;20028;-70
2022/03/29 00:48:29;;;;;;;15.25;11.30;;;9.00;75.20;;;;;;5090388;28;20021;-69
2022/03/29 00:50:56;;;;;;;14.27;10.30;;;9.00;75.00;;;;;;5092306;28;20405;-70
2022/03/29 00:53:23;;;;;;;21.48;16.63;;;9.10;75.00;;;;;;5078994;28;20078;-71
2022/03/29 00:55:49;;;;;;;18.90;13.43;;;8.90;75.80;;;;;;5071250;28;20021;-70
2022/03/29 00:58:16;;;;;;;18.30;13.30;;;8.90;76.00;;;;;;5087462;28;20016;-69
2022/03/29 01:00:42;;;;;;;18.30;12.93;;;9.00;75.90;;;;;;5093084;28;20032;-69
2022/03/29 01:03:08;;;;;;;14.82;11.90;;;9.00;75.80;;;;;;5091832;28;20490;-70
2022/03/29 01:05:33;;;;;;;19.98;13.32;;;8.90;75.60;;;;;;5091212;28;20077;-70
2022/03/29 01:08:00;;;;;;;13.60;10.45;;;8.80;75.80;;;;;;5084260;28;20036;-69
2022/03/29 01:10:26;;;;;;;18.45;12.30;;;8.80;75.90;;;;;;5072529;28;20380;-69
2022/03/29 01:12:53;;;;;;;14.60;11.18;;;8.80;75.90;;;;;;5082170;28;20016;-71
2022/03/29 01:15:19;;;;;;;18.25;12.40;;;8.80;76.00;;;;;;5091711;28;20032;-69
2022/03/29 01:17:47;;;;;;;19.10;12.75;;;8.70;76.00;;;;;;5085140;28;20067;-69
2022/03/29 01:20:29;;;;;;;18.65;14.00;;;8.70;76.10;;;;;;5074224;28;20025;-70
2022/03/29 01:22:57;;;;;;;15.60;11.23;;;8.70;76.20;;;;;;5082664;28;20060;-69
2022/03/29 01:25:25;;;;;;;17.52;12.90;;;8.70;76.30;;;;;;5092782;28;20594;-70
2022/03/29 01:27:53;;;;;;;26.75;11.82;;;8.60;76.60;;;;;;5082005;28;20064;-70
2022/03/29 01:30:20;;;;;;;25.08;16.58;;;8.60;76.70;;;;;;5081943;28;20024;-70
2022/03/29 01:32:48;;;;;;;21.65;13.48;;;8.50;77.30;;;;;;5107013;28;20049;-67
2022/03/29 01:35:16;;;;;;;24.55;12.20;;;8.50;77.60;;;;;;5106024;28;20022;-69
2022/03/29 01:37:42;;;;;;;18.85;11.65;;;8.60;77.70;;;;;;5076698;28;20035;-70
2022/03/29 01:40:15;;;;;;;17.05;11.18;;;8.60;77.40;;;;;;5076386;28;20032;-70
2022/03/29 01:42:46;;;;;;;31.17;11.65;;;8.60;77.30;;;;;;5081703;28;20060;-69
2022/03/29 01:45:12;;;;;;;27.30;12.00;;;8.60;77.20;;;;;;5094064;28;20036;-70
2022/03/29 01:47:37;;;;;;;24.90;11.15;;;8.60;77.20;;;;;;5080646;28;20028;-71
2022/03/29 01:50:04;;;;;;;17.48;9.93;;;8.60;77.10;;;;;;5076241;28;20032;-71
2022/03/29 01:52:29;;;;;;;39.50;12.85;;;8.60;77.10;;;;;;5074008;28;20501;-70
2022/03/29 01:54:55;;;;;;;17.55;11.95;;;8.60;77.30;;;;;;5081992;28;20020;-70
2022/03/29 01:57:26;;;;;;;27.23;14.43;;;8.50;77.80;;;;;;5095097;28;20030;-70
2022/03/29 02:02:36;;;;;;;29.83;13.73;;;8.40;78.70;;;;;;5082849;28;20043;-71
2022/03/29 02:05:01;;;;;;;30.77;11.07;;;8.40;78.60;;;;;;5093543;28;20058;-70
2022/03/29 02:07:27;;;;;;;33.58;11.70;;;8.40;78.60;;;;;;5092200;28;20028;-69
2022/03/29 02:09:52;;;;;;;12.05;9.60;;;8.40;78.50;;;;;;5079723;28;20035;-71
2022/03/29 02:12:18;;;;;;;23.63;12.13;;;8.40;78.40;;;;;;5077054;28;20021;-71
2022/03/29 02:14:43;;;;;;;23.63;11.07;;;8.30;78.60;;;;;;5085776;28;20021;-70
2022/03/29 02:17:09;;;;;;;31.63;11.70;;;8.40;78.60;;;;;;5096123;28;20024;-70
2022/03/29 02:19:34;;;;;;;27.35;10.45;;;8.40;78.60;;;;;;5094599;28;20024;-70
2022/03/29 02:22:00;;;;;;;22.88;10.88;;;8.40;78.60;;;;;;5094459;28;20024;-70
2022/03/29 02:24:25;;;;;;;19.75;10.60;;;8.40;78.60;;;;;;5084248;28;20035;-69
2022/03/29 02:26:51;;;;;;;23.77;10.20;;;8.50;78.40;;;;;;5072368;28;20071;-70
2022/03/29 02:29:16;;;;;;;10.43;7.45;;;8.50;78.10;;;;;;5073003;28;20021;-70
2022/03/29 02:31:42;;;;;;;41.20;13.80;;;8.60;77.90;;;;;;5078233;28;20483;-70
2022/03/29 02:34:07;;;;;;;30.83;10.60;;;8.40;78.40;;;;;;5087518;28;20023;-70
2022/03/29 02:36:33;;;;;;;15.32;11.02;;;8.30;78.80;;;;;;5074380;28;20479;-71
2022/03/29 02:38:59;;;;;;;42.42;14.38;;;8.30;79.10;;;;;;5090757;28;20090;-70
2022/03/29 02:41:24;;;;;;;22.42;13.48;;;8.20;79.80;;;;;;5090739;28;20101;-69
2022/03/29 02:43:50;;;;;;;27.23;13.63;;;8.20;80.00;;;;;;5082572;28;20103;-69
2022/03/29 02:46:15;;;;;;;61.10;12.45;;;8.20;80.20;;;;;;5071775;28;20042;-71
2022/03/29 02:48:41;;;;;;;32.47;13.98;;;8.20;80.20;;;;;;5072587;28;20475;-70
2022/03/29 02:51:06;;;;;;;30.77;14.52;;;8.10;80.30;;;;;;5073211;28;20446;-70
2022/03/29 02:53:32;;;;;;;35.35;15.50;;;8.00;80.80;;;;;;5080756;28;20059;-70
2022/03/29 02:55:58;;;;;;;22.77;12.27;;;7.90;81.30;;;;;;5085588;28;20017;-69
2022/03/29 02:58:23;;;;;;;24.65;13.25;;;7.80;81.70;;;;;;5087261;28;20050;-70
2022/03/29 03:00:51;;;;;;;36.03;13.25;;;7.80;82.00;;;;;;5099622;28;20028;-69
2022/03/29 03:03:17;;;;;;;35.92;14.75;;;7.70;82.30;;;;;;5097040;28;20028;-69
2022/03/29 03:05:43;;;;;;;52.17;13.45;;;7.70;82.60;;;;;;5094275;28;20040;-70
2022/03/29 03:08:08;;;;;;;33.78;15.73;;;7.70;82.50;;;;;;5081323;28;20025;-70
2022/03/29 03:10:34;;;;;;;31.90;12.10;;;7.70;82.70;;;;;;5074704;28;20059;-69
2022/03/29 03:13:00;;;;;;;44.80;14.48;;;7.60;83.00;;;;;;5079234;28;20107;-67
2022/03/29 03:15:25;;;;;;;31.48;14.07;;;7.50;83.20;;;;;;5094346;28;20023;-70
2022/03/29 03:17:53;;;;;;;61.20;12.70;;;7.50;83.50;;;;;;5092738;28;20032;-68
2022/03/29 03:20:21;;;;;;;55.00;14.13;;;7.50;83.50;;;;;;5081054;28;20575;-71
2022/03/29 03:22:47;;;;;;;24.55;10.85;;;7.50;83.80;;;;;;5088634;28;20020;-71
2022/03/29 03:25:13;;;;;;;22.48;8.68;;;7.50;83.60;;;;;;5083498;28;20047;-71
2022/03/29 03:27:40;;;;;;;28.73;10.38;;;7.70;83.20;;;;;;5073621;28;20394;-71
2022/03/29 03:30:08;;;;;;;13.25;7.65;;;7.90;82.70;;;;;;5081276;28;20052;-71
2022/03/29 03:32:34;;;;;;;26.45;10.27;;;7.90;82.20;;;;;;5081429;28;20029;-71
2022/03/29 03:35:00;;;;;;;29.33;9.75;;;8.00;81.90;;;;;;5075953;28;20025;-70
2022/03/29 03:37:26;;;;;;;31.42;10.20;;;8.00;81.50;;;;;;5075510;28;20020;-71
2022/03/29 03:39:52;;;;;;;16.40;8.75;;;8.00;81.40;;;;;;5094651;28;20112;-70
2022/03/29 03:42:17;;;;;;;53.78;12.98;;;8.10;81.30;;;;;;5094000;28;20052;-71
2022/03/29 03:44:43;;;;;;;40.63;13.35;;;8.00;81.20;;;;;;5092838;28;20103;-70
2022/03/29 03:47:09;;;;;;;22.45;10.55;;;7.80;81.50;;;;;;5094045;28;20026;-71
2022/03/29 03:49:36;;;;;;;32.30;9.15;;;7.70;81.90;;;;;;5073866;28;20039;-71
2022/03/29 03:52:01;;;;;;;42.35;12.18;;;7.70;82.10;;;;;;5074983;28;20112;-70
2022/03/29 03:54:27;;;;;;;27.38;12.43;;;7.80;82.20;;;;;;5075407;28;20048;-71
2022/03/29 03:56:52;;;;;;;21.15;8.60;;;7.60;82.30;;;;;;5075529;28;20020;-72
2022/03/29 03:59:18;;;;;;;15.50;8.30;;;7.70;82.50;;;;;;5091919;28;20440;-70
2022/03/29 04:01:44;;;;;;;35.40;13.80;;;7.80;82.30;;;;;;5082293;28;20024;-70
2022/03/29 04:04:10;;;;;;;24.95;10.80;;;7.70;82.40;;;;;;5082192;28;20660;-72
2022/03/29 04:06:36;;;;;;;20.02;12.00;;;7.70;82.60;;;;;;5078580;28;20101;-71
2022/03/29 04:09:01;;;;;;;19.67;8.45;;;7.60;82.80;;;;;;5087481;28;20038;-71
2022/03/29 04:11:27;;;;;;;18.38;9.30;;;7.70;82.90;;;;;;5097946;28;20034;-71
2022/03/29 04:13:53;;;;;;;15.63;11.65;;;7.70;82.70;;;;;;5096541;28;20039;-71
2022/03/29 04:16:19;;;;;;;19.05;10.18;;;7.80;82.70;;;;;;5095619;28;20452;-70
2022/03/29 04:18:45;;;;;;;46.15;12.60;;;7.70;82.70;;;;;;5085964;28;20107;-70
2022/03/29 04:21:11;;;;;;;41.90;13.93;;;7.60;82.80;;;;;;5075360;28;20657;-71
2022/03/29 04:23:37;;;;;;;18.60;12.20;;;7.60;83.10;;;;;;5076571;28;20024;-71
2022/03/29 04:26:03;;;;;;;22.58;12.57;;;7.50;83.30;;;;;;5074525;28;20074;-70
2022/03/29 04:28:29;;;;;;;22.42;11.85;;;7.60;83.60;;;;;;5082790;28;20028;-70
2022/03/29 04:30:55;;;;;;;17.20;8.48;;;7.50;83.70;;;;;;5095342;28;20074;-71
2022/03/29 04:33:22;;;;;;;24.85;13.00;;;7.70;83.60;;;;;;5086528;28;20835;-71
2022/03/29 04:35:47;;;;;;;22.73;10.60;;;7.70;83.50;;;;;;5074597;28;20021;-70
2022/03/29 04:38:13;;;;;;;31.63;11.10;;;7.80;83.40;;;;;;5081106;28;20025;-71
2022/03/29 04:40:38;;;;;;;30.38;10.40;;;7.90;83.00;;;;;;5093340;28;20020;-70
2022/03/29 04:43:04;;;;;;;14.40;8.65;;;8.00;82.60;;;;;;5091932;28;20031;-69
2022/03/29 04:45:29;;;;;;;31.92;10.15;;;8.00;82.30;;;;;;5092471;28;20032;-70
2022/03/29 04:47:55;;;;;;;27.35;8.48;;;8.10;82.00;;;;;;5089333;28;20035;-71
2022/03/29 04:50:21;;;;;;;18.27;10.15;;;8.20;81.80;;;;;;5074114;28;20035;-71
2022/03/29 04:52:47;;;;;;;24.25;9.55;;;8.20;81.50;;;;;;5074250;28;20027;-71
2022/03/29 04:55:14;;;;;;;19.52;9.10;;;8.20;81.40;;;;;;5073592;28;20016;-70
2022/03/29 04:57:42;;;;;;;27.67;10.93;;;8.30;81.30;;;;;;5076782;28;20028;-69
2022/03/29 05:00:09;;;;;;;24.70;10.02;;;8.30;81.10;;;;;;5094481;28;20020;-72
2022/03/29 05:02:35;;;;;;;24.98;10.20;;;8.30;80.80;;;;;;5092749;28;20531;-72
2022/03/29 05:05:01;;;;;;;20.92;8.23;;;8.40;80.70;;;;;;5092628;28;20024;-68
2022/03/29 05:07:28;;;;;;;32.13;10.77;;;8.40;80.50;;;;;;5090311;28;20027;-70
2022/03/29 05:09:54;;;;;;;20.48;9.65;;;8.30;80.50;;;;;;5094097;28;20012;-70
2022/03/29 05:12:19;;;;;;;36.15;11.00;;;8.40;80.50;;;;;;5090694;28;20051;-72
2022/03/29 05:14:45;;;;;;;16.08;8.85;;;8.30;80.40;;;;;;5095165;28;20089;-70
2022/03/29 05:17:11;;;;;;;22.20;10.10;;;8.30;80.50;;;;;;5092939;28;20103;-70
2022/03/29 05:19:36;;;;;;;23.15;11.00;;;8.30;80.50;;;;;;5075816;28;20028;-73
2022/03/29 05:22:02;;;;;;;22.65;9.57;;;8.20;80.70;;;;;;5074265;28;20020;-71
2022/03/29 05:24:27;;;;;;;18.25;10.07;;;8.20;80.80;;;;;;5072852;28;20033;-71
2022/03/29 05:26:53;;;;;;;23.63;10.80;;;8.30;80.80;;;;;;5073045;28;20039;-71
2022/03/29 05:29:19;;;;;;;20.40;9.32;;;8.30;80.80;;;;;;5088602;28;20032;-69
2022/03/29 05:31:44;;;;;;;35.67;10.00;;;8.30;80.70;;;;;;5091712;28;20069;-70
2022/03/29 05:34:10;;;;;;;26.70;12.45;;;8.30;80.50;;;;;;5089638;28;20398;-70
2022/03/29 05:36:36;;;;;;;18.90;11.80;;;8.20;80.80;;;;;;5088736;28;20047;-69
2022/03/29 05:39:03;;;;;;;21.60;12.73;;;8.10;81.30;;;;;;5085988;28;20624;-70
2022/03/29 05:41:29;;;;;;;18.00;9.30;;;8.00;82.00;;;;;;5076226;28;20102;-69
2022/03/29 05:43:54;;;;;;;17.75;10.73;;;8.00;82.20;;;;;;5078416;28;20111;-69
2022/03/29 05:49:04;;;;;;;24.30;9.82;;;8.10;82.00;;;;;;5088127;28;20038;-70
2022/03/29 05:51:31;;;;;;;34.10;11.57;;;8.10;81.70;;;;;;5081076;28;20020;-70
2022/03/29 05:53:57;;;;;;;24.38;13.15;;;8.20;81.60;;;;;;5074073;28;20025;-70
2022/03/29 05:56:24;;;;;;;18.27;11.07;;;8.10;81.70;;;;;;5074613;28;20016;-70
2022/03/29 05:58:50;;;;;;;28.90;11.25;;;8.20;81.90;;;;;;5100011;28;20031;-70
2022/03/29 06:01:16;;;;;;;16.73;10.07;;;8.20;81.80;;;;;;5090338;28;20460;-70
2022/03/29 06:03:42;;;;;;;42.75;10.38;;;8.20;81.80;;;;;;5079763;28;20035;-70
2022/03/29 06:06:08;;;;;;;25.55;10.82;;;8.20;81.80;;;;;;5071410;28;20029;-71
2022/03/29 06:08:35;;;;;;;21.63;9.70;;;8.30;81.80;;;;;;5080836;28;20017;-70
2022/03/29 06:11:01;;;;;;;33.38;11.88;;;8.30;81.50;;;;;;5079312;28;20157;-70
2022/03/29 06:13:27;;;;;;;26.98;11.85;;;8.40;81.40;;;;;;5082238;28;20099;-71
2022/03/29 06:15:55;;;;;;;34.63;11.85;;;8.40;81.30;;;;;;5082388;28;20036;-71
2022/03/29 06:18:21;;;;;;;33.95;11.88;;;8.40;81.30;;;;;;5082044;28;20023;-71
2022/03/29 06:20:50;;;;;;;18.80;11.07;;;8.40;81.20;;;;;;5079485;28;20033;-72
2022/03/29 06:23:16;;;;;;;36.45;12.18;;;8.40;81.20;;;;;;5086879;28;20031;-72
2022/03/29 06:25:42;;;;;;;33.90;10.55;;;8.40;81.30;;;;;;5079458;28;20028;-70
2022/03/29 06:28:10;;;;;;;38.20;13.90;;;8.40;81.20;;;;;;5089019;28;20034;-70
2022/03/29 06:30:36;;;;;;;28.23;15.20;;;8.30;81.50;;;;;;5072314;28;20032;-69
2022/03/29 06:33:02;;;;;;;19.05;12.32;;;8.30;81.70;;;;;;5070126;28;20042;-69
2022/03/29 06:35:28;;;;;;;19.25;10.52;;;8.20;82.20;;;;;;5079487;28;20025;-70
2022/03/29 06:37:56;;;;;;;89.75;18.10;;;8.20;82.30;;;;;;5083351;28;20016;-71
2022/03/29 06:40:23;;;;;;;26.77;16.08;;;8.20;82.40;;;;;;5073245;28;20064;-70
2022/03/29 06:42:52;;;;;;;34.88;13.90;;;8.10;82.80;;;;;;5078798;28;20059;-70
2022/03/29 06:45:18;;;;;;;24.67;12.38;;;8.10;83.00;;;;;;5085409;28;20031;-70
2022/03/29 06:47:44;;;;;;;26.48;10.60;;;8.10;82.90;;;;;;5082049;28;20086;-70
2022/03/29 06:50:10;;;;;;;16.85;11.02;;;8.10;82.70;;;;;;5074997;28;20046;-70
2022/03/29 06:52:37;;;;;;;11.05;7.15;;;8.10;82.50;;;;;;5080377;28;20074;-70
2022/03/29 06:55:04;;;;;;;12.32;8.05;;;8.20;82.50;;;;;;5098170;28;20120;-70
2022/03/29 06:57:29;;;;;;;17.55;9.70;;;8.20;82.40;;;;;;5089540;28;20143;-70
2022/03/29 06:59:55;;;;;;;14.55;10.02;;;8.20;82.20;;;;;;5082945;28;20024;-71
2022/03/29 07:02:21;;;;;;;27.05;13.70;;;8.20;82.10;;;;;;5079861;28;20028;-71
2022/03/29 07:04:46;;;;;;;20.08;13.82;;;8.10;82.20;;;;;;5076196;28;20044;-71
2022/03/29 07:07:12;;;;;;;23.58;15.65;;;7.90;82.50;;;;;;5077308;28;20023;-69
2022/03/29 07:12:23;;;;;;;28.23;16.17;;;7.90;83.30;;;;;;5083177;28;20159;-68
2022/03/29 07:14:48;;;;;;;29.60;18.83;;;7.90;83.10;;;;;;5082161;28;20103;-69
2022/03/29 07:17:15;;;;;;;25.63;16.30;;;7.70;83.20;;;;;;5096658;28;20030;-71
2022/03/29 07:19:41;;;;;;;30.90;19.00;;;7.70;83.60;;;;;;5098663;28;20103;-67
2022/03/29 07:22:07;;;;;;;24.13;15.43;;;7.60;83.60;;;;;;5107544;28;20016;-68
2022/03/29 07:24:33;;;;;;;26.88;17.08;;;7.50;83.80;;;;;;5086627;28;20020;-69
2022/03/29 07:26:58;;;;;;;22.67;13.13;;;7.40;83.90;;;;;;5089330;28;20034;-71
2022/03/29 07:29:25;;;;;;;36.13;22.88;;;7.50;83.80;;;;;;5090495;28;20029;-70
2022/03/29 07:31:51;;;;;;;28.33;15.95;;;7.50;83.40;;;;;;5093690;28;20071;-68
2022/03/29 07:34:17;;;;;;;27.42;16.40;;;7.40;83.60;;;;;;5075973;28;20017;-68
2022/03/29 07:36:43;;;;;;;21.27;12.98;;;7.50;83.70;;;;;;5082949;28;20016;-68
2022/03/29 07:39:09;;;;;;;17.98;10.00;;;7.60;83.50;;;;;;5074290;28;20040;-70
2022/03/29 07:41:34;;;;;;;22.35;14.25;;;7.70;83.10;;;;;;5083731;28;20024;-71
2022/03/29 07:44:00;;;;;;;25.15;15.38;;;7.70;82.80;;;;;;5084147;28;20107;-70
2022/03/29 07:46:26;;;;;;;30.13;16.63;;;7.70;82.80;;;;;;5080633;28;20013;-69
2022/03/29 07:48:51;;;;;;;25.67;16.75;;;7.60;82.90;;;;;;5078244;28;20036;-68
2022/03/29 07:51:17;;;;;;;27.83;17.25;;;7.60;83.10;;;;;;5082065;28;20103;-70
2022/03/29 07:53:43;;;;;;;28.33;16.73;;;7.60;83.10;;;;;;5078659;28;20048;-70
2022/03/29 07:56:09;;;;;;;26.65;16.40;;;7.60;83.20;;;;;;5083292;28;20020;-70
2022/03/29 07:58:34;;;;;;;26.35;15.25;;;7.70;83.10;;;;;;5078347;28;20017;-70
2022/03/29 08:01:00;;;;;;;20.48;13.10;;;7.80;82.70;;;;;;5083285;28;20086;-69
2022/03/29 08:03:32;;;;;;;23.92;14.45;;;7.90;82.20;;;;;;5073723;28;20038;-72
2022/03/29 08:05:58;;;;;;;23.45;14.65;;;8.00;81.80;;;;;;5080833;28;20033;-71
2022/03/29 08:08:24;;;;;;;37.78;23.02;;;8.00;81.30;;;;;;5092777;28;20035;-72
2022/03/29 08:10:50;;;;;;;36.08;21.15;;;8.00;81.20;;;;;;5086490;28;20115;-70
2022/03/29 08:13:17;;;;;;;29.17;16.38;;;7.80;81.40;;;;;;5077676;28;20012;-71
2022/03/29 08:15:44;;;;;;;20.38;12.48;;;7.90;81.70;;;;;;5083661;28;20032;-71
2022/03/29 08:18:10;;;;;;;26.38;15.73;;;8.00;81.60;;;;;;5097780;28;20237;-70
2022/03/29 08:20:37;;;;;;;28.75;16.63;;;8.00;81.40;;;;;;5088339;28;20020;-71
2022/03/29 08:23:03;;;;;;;26.60;15.25;;;8.10;81.30;;;;;;5077797;28;20024;-72
2022/03/29 08:25:31;;;;;;;33.20;19.77;;;8.10;81.00;;;;;;5090138;28;20047;-72
2022/03/29 08:27:57;;;;;;;31.70;18.50;;;8.10;80.90;;;;;;5075124;28;20507;-71
2022/03/29 08:30:26;;;;;;;30.50;18.48;;;8.10;80.80;;;;;;5083958;28;20035;-70
2022/03/29 08:32:53;;;;;;;25.75;15.52;;;8.10;80.90;;;;;;5091763;28;20366;-70
2022/03/29 08:35:19;;;;;;;24.65;14.73;;;8.20;80.80;;;;;;5082506;28;20015;-72
2022/03/29 08:37:47;;;;;;;36.50;21.48;;;8.30;80.60;;;;;;5084721;28;20085;-70
2022/03/29 08:40:15;;;;;;;35.47;21.15;;;8.30;80.10;;;;;;5082550;28;20107;-71
2022/03/29 08:42:43;;;;;;;32.78;18.35;;;8.10;80.30;;;;;;5076835;28;20024;-72
2022/03/29 08:45:10;;;;;;;34.28;19.95;;;8.10;80.70;;;;;;5083099;28;20537;-72
2022/03/29 08:47:36;;;;;;;27.45;16.55;;;8.20;80.60;;;;;;5083228;28;20490;-71
2022/03/29 08:50:06;;;;;;;32.55;20.33;;;8.30;80.30;;;;;;5083714;28;20032;-71
2022/03/29 08:52:33;;;;;;;36.20;20.63;;;8.20;79.80;;;;;;5078022;28;20024;-71
2022/03/29 08:54:59;;;;;;;39.95;22.13;;;8.20;79.80;;;;;;5088036;28;20020;-71
2022/03/29 08:57:24;;;;;;;37.55;22.35;;;8.20;80.10;;;;;;5083928;28;20724;-70
2022/03/29 08:59:50;;;;;;;31.75;18.63;;;8.10;80.20;;;;;;5087172;28;20032;-71
2022/03/29 09:02:16;;;;;;;35.47;21.40;;;8.20;80.60;;;;;;5088483;28;20027;-69
2022/03/29 09:05:05;;;;;;;26.70;16.30;;;8.30;80.10;;;;;;5081966;28;20037;-70
2022/03/29 09:07:50;;;;;;;30.48;18.05;;;8.40;79.70;;;;;;5079234;28;20554;-70
2022/03/29 09:10:17;;;;;;;31.00;18.48;;;8.50;79.60;;;;;;5082051;28;20028;-69
2022/03/29 09:12:43;;;;;;;32.13;18.92;;;8.60;79.20;;;;;;5082599;28;20112;-70
2022/03/29 09:15:09;;;;;;;31.48;18.10;;;8.70;79.00;;;;;;5086598;28;20095;-70
2022/03/29 09:17:41;;;;;;;35.08;18.48;;;8.90;78.80;;;;;;5085361;28;20023;-69
2022/03/29 09:20:15;;;;;;;32.53;18.48;;;9.00;78.10;;;;;;5086180;28;20039;-71
2022/03/29 09:22:49;;;;;;;32.63;20.15;;;9.00;77.70;;;;;;5075481;28;20032;-70
2022/03/29 09:25:33;;;;;;;33.10;19.10;;;9.20;77.60;;;;;;5079955;28;20077;-70
2022/03/29 09:28:10;;;;;;;42.22;24.98;;;9.30;77.30;;;;;;5084879;28;20791;-70
2022/03/29 09:30:58;;;;;;;31.77;19.27;;;9.40;76.70;;;;;;5083317;28;20023;-70
2022/03/29 09:33:32;;;;;;;29.70;18.83;;;9.60;76.50;;;;;;5088756;28;20024;-68
2022/03/29 09:36:04;;;;;;;37.63;21.92;;;9.70;76.50;;;;;;5080042;28;20031;-69
2022/03/29 09:38:32;;;;;;;37.47;23.17;;;9.70;75.30;;;;;;5077087;28;20417;-68
2022/03/29 09:40:59;;;;;;;35.40;21.60;;;9.60;74.50;;;;;;5077244;28;20016;-69
2022/03/29 09:43:26;;;;;;;38.92;24.08;;;9.60;74.60;;;;;;5078247;28;20031;-70
2022/03/29 09:46:00;;;;;;;39.95;24.52;;;9.60;74.80;;;;;;5076599;28;20043;-69
2022/03/29 09:48:40;;;;;;;40.38;25.95;;;9.70;74.50;;;;;;5080199;28;20032;-69
2022/03/29 09:51:09;;;;;;;36.17;22.17;;;9.60;73.90;;;;;;5080530;28;20028;-69
2022/03/29 09:53:47;;;;;;;36.15;22.95;;;9.70;74.20;;;;;;5086391;28;20363;-69
2022/03/29 09:56:21;;;;;;;29.35;18.75;;;9.70;73.50;;;;;;5076785;28;20027;-70
2022/03/29 09:59:05;;;;;;;27.95;17.48;;;9.90;73.70;;;;;;5082001;28;20016;-70
2022/03/29 10:01:49;;;;;;;37.67;23.60;;;10.20;73.20;;;;;;5077636;28;21498;-69
2022/03/29 10:04:16;;;;;;;33.25;21.23;;;10.40;72.00;;;;;;5079061;28;20399;-70
2022/03/29 10:06:43;;;;;;;33.60;20.83;;;10.40;71.90;;;;;;5079042;28;20085;-69
2022/03/29 10:09:26;;;;;;;40.55;24.80;;;10.40;71.20;;;;;;5078705;28;20448;-68
2022/03/29 10:12:12;;;;;;;43.20;26.73;;;10.40;71.30;;;;;;5085615;28;20012;-69
2022/03/29 10:14:41;;;;;;;34.53;21.38;;;10.30;71.10;;;;;;5091406;28;20028;-69
2022/03/29 10:17:08;;;;;;;31.40;20.75;;;10.40;71.40;;;;;;5088886;28;20034;-69
2022/03/29 10:19:36;;;;;;;36.78;23.17;;;10.60;71.10;;;;;;5086483;28;20583;-69
2022/03/29 10:22:02;;;;;;;33.40;22.20;;;10.90;70.40;;;;;;5087660;28;20029;-69
2022/03/29 10:24:29;;;;;;;35.00;23.35;;;11.00;69.60;;;;;;5086107;28;20029;-70
2022/03/29 10:26:59;;;;;;;28.63;18.52;;;11.00;68.80;;;;;;5079497;28;20103;-68
2022/03/29 10:29:25;;;;;;;27.35;17.33;;;11.10;69.20;;;;;;5081741;28;20111;-69
2022/03/29 10:31:59;;;;;;;30.77;20.00;;;11.30;69.10;;;;;;5087808;28;20123;-69
2022/03/29 10:34:30;;;;;;;38.05;25.48;;;11.30;68.40;;;;;;5103520;28;20023;-68
2022/03/29 10:37:28;;;;;;;38.55;24.17;;;11.10;67.20;;;;;;5091698;28;20106;-69
2022/03/29 10:39:56;;;;;;;32.67;21.08;;;10.90;67.80;;;;;;5027563;28;20048;-68
2022/03/29 10:42:36;;;;;;;38.47;25.40;;;11.00;68.60;;;;;;5083936;28;20381;-68
2022/03/29 10:45:01;;;;;;;27.83;19.02;;;11.20;67.80;;;;;;5086990;28;20586;-69
2022/03/29 10:47:29;;;;;;;25.90;17.60;;;11.40;67.90;;;;;;5074152;28;20028;-69
2022/03/29 10:49:55;;;;;;;30.00;20.00;;;11.70;67.50;;;;;;5079417;28;20082;-69
2022/03/29 10:52:20;;;;;;;33.40;22.08;;;11.80;66.80;;;;;;5086331;28;20035;-69
2022/03/29 10:54:46;;;;;;;32.70;21.38;;;11.90;65.90;;;;;;5077244;28;20021;-69
2022/03/29 10:57:26;;;;;;;32.95;20.35;;;11.90;65.60;;;;;;5091508;28;20019;-68
2022/03/29 11:00:17;;;;;;;28.98;19.15;;;12.10;65.60;;;;;;5099389;28;20458;-67
2022/03/29 11:03:05;;;;;;;33.15;21.90;;;12.30;65.20;;;;;;5082187;28;20077;-67
2022/03/29 11:05:30;;;;;;;29.90;20.35;;;12.40;64.40;;;;;;5076640;28;20058;-67
2022/03/29 11:07:59;;;;;;;33.45;21.33;;;12.40;64.20;;;;;;5077610;28;20505;-68
2022/03/29 11:10:41;;;;;;;34.92;23.73;;;12.40;63.90;;;;;;5092626;28;20023;-68
2022/03/29 11:13:34;;;;;;;33.03;22.30;;;12.40;63.50;;;;;;5077683;28;20090;-69
2022/03/29 11:16:20;;;;;;;34.75;23.35;;;12.50;63.40;;;;;;5088040;28;20402;-70
2022/03/29 11:18:45;;;;;;;32.05;22.33;;;12.70;62.70;;;;;;5088160;28;20023;-69
2022/03/29 11:21:31;;;;;;;26.30;17.80;;;12.60;62.40;;;;;;5097510;28;20024;-69
2022/03/29 11:24:02;;;;;;;37.97;25.83;;;12.70;62.90;;;;;;5088482;28;20097;-69
2022/03/29 11:26:28;;;;;;;32.42;21.52;;;12.70;61.70;;;;;;5077880;28;20086;-68
2022/03/29 11:28:56;;;;;;;26.40;18.08;;;12.70;61.70;;;;;;5078674;28;20032;-69
2022/03/29 11:31:23;;;;;;;25.13;18.00;;;12.70;62.30;;;;;;5082850;28;20028;-69
2022/03/29 11:33:49;;;;;;;28.92;19.77;;;12.90;62.10;;;;;;5088470;28;20089;-68
2022/03/29 11:36:20;;;;;;;27.50;18.65;;;13.00;62.20;;;;;;5093747;28;20016;-67
2022/03/29 11:38:46;;;;;;;24.85;15.73;;;13.20;62.40;;;;;;5088109;28;20102;-69
2022/03/29 11:41:26;;;;;;;28.55;19.15;;;13.50;61.70;;;;;;5086312;28;20107;-66
2022/03/29 11:43:53;;;;;;;32.58;22.02;;;13.50;60.80;;;;;;5080395;28;20165;-69
2022/03/29 11:46:19;;;;;;;33.17;22.95;;;13.50;60.40;;;;;;5080224;28;20031;-69
2022/03/29 11:48:49;;;;;;;32.00;23.17;;;13.50;60.10;;;;;;5077432;28;20687;-69
2022/03/29 11:51:15;;;;;;;28.73;20.80;;;13.50;59.60;;;;;;5083840;28;20051;-68
2022/03/29 11:53:41;;;;;;;34.22;24.17;;;13.60;60.10;;;;;;5089809;28;20501;-69
2022/03/29 11:56:13;;;;;;;31.00;21.63;;;13.60;59.50;;;;;;5082061;28;20055;-69
2022/03/29 11:58:43;;;;;;;37.33;25.73;;;13.80;59.70;;;;;;5094668;28;20027;-70
2022/03/29 12:01:10;;;;;;;33.00;22.73;;;13.70;59.00;;;;;;5088521;28;20032;-69
2022/03/29 12:03:40;;;;;;;33.72;24.33;;;13.80;59.00;;;;;;5088662;28;20386;-69
2022/03/29 12:06:18;;;;;;;30.00;20.25;;;13.90;58.60;;;;;;5096817;28;20031;-69
2022/03/29 12:08:51;;;;;;;29.77;21.48;;;13.90;58.60;;;;;;5098930;28;20517;-68
2022/03/29 12:11:39;;;;;;;29.38;20.95;;;14.10;58.60;;;;;;5081219;28;20411;-69
2022/03/29 12:14:12;;;;;;;30.00;21.38;;;14.20;58.20;;;;;;5091404;28;20024;-69
2022/03/29 12:16:39;;;;;;;29.60;20.13;;;14.40;56.50;;;;;;5086288;28;20033;-68
2022/03/29 12:19:07;;;;;;;21.52;15.15;;;14.30;55.90;;;;;;5088005;28;20095;-70
2022/03/29 12:21:32;;;;;;;17.23;13.38;;;14.60;56.50;;;;;;5110977;28;20009;-68
2022/03/29 12:24:09;;;;;;;21.60;15.93;;;14.90;56.30;;;;;;5095691;28;20083;-68
2022/03/29 12:26:43;;;;;;;25.45;18.05;;;15.00;55.10;;;;;;5082929;28;20020;-68
2022/03/29 12:29:15;;;;;;;24.00;16.90;;;15.10;54.40;;;;;;5099192;28;20095;-68
2022/03/29 12:31:41;;;;;;;23.73;16.88;;;15.30;54.50;;;;;;5095952;28;20019;-67
2022/03/29 12:34:08;;;;;;;27.02;19.50;;;15.50;54.20;;;;;;5097348;28;20105;-67
2022/03/29 12:36:38;;;;;;;23.55;17.25;;;15.40;52.80;;;;;;5082807;28;20029;-70
2022/03/29 12:39:07;;;;;;;23.42;17.08;;;15.40;53.00;;;;;;5080858;28;20024;-69
2022/03/29 12:41:34;;;;;;;24.02;17.55;;;15.50;53.00;;;;;;5083240;28;20363;-68
2022/03/29 12:44:00;;;;;;;22.55;16.02;;;15.60;52.70;;;;;;5080935;28;20095;-69
2022/03/29 12:46:27;;;;;;;15.88;12.25;;;15.70;52.60;;;;;;5080936;28;20089;-69
2022/03/29 12:48:54;;;;;;;22.02;17.52;;;15.90;52.40;;;;;;5085707;28;20056;-69